createdAt,value
2018-04-09T08:03:52.693Z,27.53
2018-04-09T08:05:00.671Z,29.02
2018-04-09T08:06:05.626Z,29.64
2018-04-09T08:07:13.674Z,30.36
2018-04-09T08:08:19.376Z,31.00
2018-04-09T08:09:25.107Z,31.38
2018-04-09T08:10:31.005Z,31.52
2018-04-09T08:11:35.385Z,31.67
2018-04-09T08:12:41.051Z,31.67
2018-04-09T08:13:45.336Z,31.48
2018-04-09T08:15:07.213Z,31.52
2018-04-09T08:16:12.539Z,31.94
2018-04-09T08:17:17.256Z,31.07
2018-04-09T08:18:20.957Z,29.94
2018-04-09T08:19:32.604Z,29.95
2018-04-09T08:20:36.841Z,29.92
2018-04-09T08:21:40.556Z,29.70
2018-04-09T08:29:09.991Z,29.93
2018-04-09T08:30:13.758Z,30.94
2018-04-09T08:31:17.488Z,30.49
2018-04-09T08:32:22.190Z,30.36
2018-04-09T08:33:26.824Z,30.29
2018-04-09T08:34:32.445Z,30.35
2018-04-09T08:36:55.495Z,25.94
2018-04-09T08:38:03.372Z,24.68
2018-04-09T08:39:08.328Z,24.19
2018-04-09T08:42:39.478Z,29.08
2018-04-09T08:43:48.697Z,30.08
2018-04-09T08:44:53.852Z,30.57
2018-04-09T08:45:58.287Z,31.17
2018-04-09T08:47:03.540Z,30.85
2018-04-09T08:48:09.765Z,30.81
2018-04-09T08:49:17.032Z,30.56
2018-04-09T09:38:46.599Z,29.19
2018-04-09T09:39:53.719Z,29.23
2018-04-09T09:40:58.574Z,29.34
2018-04-09T09:42:03.713Z,29.20
2018-04-09T09:43:25.739Z,29.22
2018-04-09T09:44:31.358Z,29.33
2018-04-09T09:45:37.551Z,29.32
2018-04-09T09:46:44.106Z,29.01
2018-04-09T09:47:49.110Z,28.88
2018-04-09T09:48:54.402Z,28.78
2018-04-09T09:49:58.812Z,29.03
2018-04-09T09:51:04.826Z,29.18
2018-04-09T09:52:14.017Z,29.08
2018-04-09T09:53:21.043Z,29.17
2018-04-09T09:54:27.877Z,28.92
2018-04-09T09:55:34.316Z,28.90
2018-04-09T09:56:39.867Z,28.72
2018-04-09T09:57:46.662Z,28.84
2018-04-09T09:58:52.267Z,28.77
2018-04-09T09:59:59.006Z,28.74
2018-04-09T10:01:15.610Z,28.78
2018-04-09T10:02:21.389Z,28.87
2018-04-09T10:03:29.710Z,29.01
2018-04-09T10:04:34.847Z,29.13
2018-04-09T10:05:38.881Z,29.11
2018-04-09T10:06:42.989Z,29.04
2018-04-09T10:07:48.024Z,28.99
2018-04-09T10:08:52.153Z,28.93
2018-04-09T10:09:58.564Z,28.93
2018-04-09T10:11:06.497Z,28.99
2018-04-09T10:12:11.740Z,28.87
2018-04-09T10:13:16.406Z,29.03
2018-04-09T10:14:23.254Z,28.99
2018-04-09T10:15:29.257Z,28.87
2018-04-09T10:16:33.113Z,28.88
2018-04-09T10:17:43.875Z,28.97
2018-04-09T10:18:51.996Z,29.04
2018-04-09T10:19:56.467Z,29.00
2018-04-09T10:21:03.702Z,29.05
2018-04-09T10:22:07.924Z,29.03
2018-04-09T10:23:15.295Z,28.86
2018-04-09T10:24:21.598Z,28.83
2018-04-09T10:25:25.662Z,28.81
2018-04-09T10:26:31.021Z,28.58
2018-04-09T10:54:47.851Z,25.19
2018-04-09T10:55:52.303Z,25.23
2018-04-09T10:56:56.161Z,24.88
2018-04-09T10:58:00.458Z,25.11
2018-04-09T10:59:04.184Z,24.93
2018-04-09T11:00:07.921Z,24.68
2018-04-09T11:01:12.448Z,25.18
2018-04-09T11:02:16.291Z,25.31
2018-04-09T11:03:20.899Z,25.29
2018-04-09T11:04:24.906Z,25.33
2018-04-09T11:05:28.847Z,25.12
2018-04-09T11:06:32.636Z,25.48
2018-04-09T11:07:36.673Z,25.47
2018-04-09T20:35:49.195Z,24.73
2018-04-09T20:36:53.708Z,24.44
2018-04-09T20:37:57.234Z,24.95
2018-04-09T20:39:01.404Z,24.32
2018-04-09T20:40:06.603Z,25.13
2018-04-09T20:41:13.371Z,24.47
2018-04-09T20:42:19.551Z,23.56
2018-04-09T20:43:25.287Z,23.43
2018-04-09T20:44:30.254Z,24.02
2018-04-09T20:45:34.334Z,23.41
2018-04-09T20:46:43.476Z,25.34
2018-04-09T20:47:47.540Z,25.29
2018-04-09T20:48:51.402Z,25.38
2018-04-09T20:49:56.791Z,25.28
2018-04-09T20:51:01.328Z,25.28
2018-04-09T20:52:06.816Z,25.30
2018-04-09T20:53:11.145Z,25.40
2018-04-09T20:54:15.655Z,25.32
2018-04-09T20:55:19.354Z,25.32
2018-04-09T20:56:23.025Z,25.02
2018-04-09T20:57:26.665Z,25.38
2018-04-09T20:58:30.359Z,25.40
2018-04-09T20:59:34.633Z,24.66
2018-04-09T21:00:38.844Z,25.23
2018-04-09T21:01:42.598Z,25.40
2018-04-09T21:02:46.564Z,25.40
2018-04-09T21:03:50.250Z,25.44
2018-04-09T21:04:53.860Z,25.35
2018-04-09T21:05:57.923Z,24.04
2018-04-09T21:07:03.084Z,24.77
2018-04-09T21:08:07.090Z,24.97
2018-04-09T21:09:11.142Z,25.42
2018-04-09T21:10:15.056Z,25.08
2018-04-09T21:11:18.739Z,25.42
2018-04-09T21:12:22.396Z,25.42
2018-04-09T21:13:26.397Z,23.82
2018-04-09T21:14:30.320Z,25.43
2018-04-09T21:15:34.537Z,25.43
2018-04-09T21:16:38.656Z,25.42
2018-04-09T21:17:42.401Z,25.43
2018-04-09T21:18:46.141Z,25.45
2018-04-09T21:19:50.275Z,25.45
2018-04-09T21:20:53.871Z,25.02
2018-04-09T21:21:59.477Z,25.43
2018-04-09T21:23:04.625Z,25.44
2018-04-09T21:24:08.851Z,25.44
2018-04-09T21:25:13.278Z,25.45
2018-04-09T21:26:20.932Z,25.46
2018-04-09T21:27:25.068Z,25.45
2018-04-09T21:28:30.622Z,25.28
2018-04-09T21:29:35.760Z,25.45
2018-04-09T21:30:39.780Z,25.19
2018-04-09T21:31:43.671Z,25.44
2018-04-09T21:32:49.687Z,25.44
2018-04-09T21:33:53.597Z,25.09
2018-04-09T21:34:57.245Z,25.45
2018-04-09T21:36:00.902Z,25.48
2018-04-09T21:37:04.620Z,25.47
2018-04-09T21:38:08.527Z,25.45
